sensor_id;sensor_type;location;lat;lon;timestamp;temperature;humidity
15596;DHT22;7898;48.658;9.068;2023-12-29T00:00:14;8.60;99.90
15596;DHT22;7898;48.658;9.068;2023-12-29T00:02:41;8.70;99.90
15596;DHT22;7898;48.658;9.068;2023-12-29T00:05:10;8.70;99.90
15596;DHT22;7898;48.658;9.068;2023-12-29T00:07:36;8.70;99.90
15596;DHT22;7898;48.658;9.068;2023-12-29T00:10:04;8.70;99.90
15596;DHT22;7898;48.658;9.068;2023-12-29T00:12:31;8.70;99.90
15596;DHT22;7898;48.658;9.068;2023-12-29T00:14:58;8.70;99.90
15596;DHT22;7898;48.658;9.068;2023-12-29T00:17:25;8.70;99.90
15596;DHT22;7898;48.658;9.068;2023-12-29T00:19:52;8.70;99.90
15596;DHT22;7898;48.658;9.068;2023-12-29T00:22:20;8.60;99.90
15596;DHT22;7898;48.658;9.068;2023-12-29T00:24:47;8.60;99.90
15596;DHT22;7898;48.658;9.068;2023-12-29T00:27:14;8.60;99.90
15596;DHT22;7898;48.658;9.068;2023-12-29T00:29:42;8.70;99.90
15596;DHT22;7898;48.658;9.068;2023-12-29T00:32:09;8.70;99.90
15596;DHT22;7898;48.658;9.068;2023-12-29T00:34:36;8.70;99.90
15596;DHT22;7898;48.658;9.068;2023-12-29T00:37:04;8.70;99.90
15596;DHT22;7898;48.658;9.068;2023-12-29T00:39:32;8.70;99.90
15596;DHT22;7898;48.658;9.068;2023-12-29T00:42:04;8.70;99.90
15596;DHT22;7898;48.658;9.068;2023-12-29T00:44:31;8.70;99.90
15596;DHT22;7898;48.658;9.068;2023-12-29T00:46:59;8.70;99.90
15596;DHT22;7898;48.658;9.068;2023-12-29T00:49:26;8.70;99.90
15596;DHT22;7898;48.658;9.068;2023-12-29T00:51:53;8.70;99.90
15596;DHT22;7898;48.658;9.068;2023-12-29T00:54:20;8.60;99.90
15596;DHT22;7898;48.658;9.068;2023-12-29T00:56:49;8.50;99.90
15596;DHT22;7898;48.658;9.068;2023-12-29T00:59:18;8.50;99.90
15596;DHT22;7898;48.658;9.068;2023-12-29T01:01:46;8.50;99.90
15596;DHT22;7898;48.658;9.068;2023-12-29T01:04:13;8.40;99.90
15596;DHT22;7898;48.658;9.068;2023-12-29T01:06:40;8.40;99.90
15596;DHT22;7898;48.658;9.068;2023-12-29T01:09:06;8.40;99.90
15596;DHT22;7898;48.658;9.068;2023-12-29T01:11:36;8.40;99.90
15596;DHT22;7898;48.658;9.068;2023-12-29T01:14:04;8.40;99.90
15596;DHT22;7898;48.658;9.068;2023-12-29T01:16:31;8.40;99.90
15596;DHT22;7898;48.658;9.068;2023-12-29T01:18:58;8.40;99.90
15596;DHT22;7898;48.658;9.068;2023-12-29T01:21:25;8.40;99.90
15596;DHT22;7898;48.658;9.068;2023-12-29T01:23:52;8.40;99.90
15596;DHT22;7898;48.658;9.068;2023-12-29T01:26:19;8.40;99.90
15596;DHT22;7898;48.658;9.068;2023-12-29T01:28:45;8.50;99.90
15596;DHT22;7898;48.658;9.068;2023-12-29T01:31:14;8.50;99.90
15596;DHT22;7898;48.658;9.068;2023-12-29T01:33:40;8.50;99.90
15596;DHT22;7898;48.658;9.068;2023-12-29T01:36:07;8.60;99.90
15596;DHT22;7898;48.658;9.068;2023-12-29T01:38:34;8.60;99.90
15596;DHT22;7898;48.658;9.068;2023-12-29T01:41:02;8.60;99.90
15596;DHT22;7898;48.658;9.068;2023-12-29T01:43:35;8.60;99.90
15596;DHT22;7898;48.658;9.068;2023-12-29T01:46:02;8.60;99.90
15596;DHT22;7898;48.658;9.068;2023-12-29T01:48:31;8.60;99.90
15596;DHT22;7898;48.658;9.068;2023-12-29T01:50:58;8.80;99.90
15596;DHT22;7898;48.658;9.068;2023-12-29T01:53:25;8.70;99.90
15596;DHT22;7898;48.658;9.068;2023-12-29T01:55:52;8.70;99.90
15596;DHT22;7898;48.658;9.068;2023-12-29T01:58:19;8.70;99.90
15596;DHT22;7898;48.658;9.068;2023-12-29T02:00:46;8.70;99.90
15596;DHT22;7898;48.658;9.068;2023-12-29T02:03:13;8.70;99.90
15596;DHT22;7898;48.658;9.068;2023-12-29T02:05:43;8.70;99.90
15596;DHT22;7898;48.658;9.068;2023-12-29T02:08:11;8.70;99.90
15596;DHT22;7898;48.658;9.068;2023-12-29T02:10:38;8.70;99.90
15596;DHT22;7898;48.658;9.068;2023-12-29T02:13:05;8.70;99.90
15596;DHT22;7898;48.658;9.068;2023-12-29T02:15:32;8.70;99.90
15596;DHT22;7898;48.658;9.068;2023-12-29T02:18:01;8.70;99.90
15596;DHT22;7898;48.658;9.068;2023-12-29T02:20:29;8.70;99.90
15596;DHT22;7898;48.658;9.068;2023-12-29T02:22:58;8.70;99.90
15596;DHT22;7898;48.658;9.068;2023-12-29T02:25:27;8.70;99.90
15596;DHT22;7898;48.658;9.068;2023-12-29T02:27:57;8.70;99.90
15596;DHT22;7898;48.658;9.068;2023-12-29T02:30:29;8.70;99.90
15596;DHT22;7898;48.658;9.068;2023-12-29T02:33:05;8.70;99.90
15596;DHT22;7898;48.658;9.068;2023-12-29T02:35:35;8.70;99.90
15596;DHT22;7898;48.658;9.068;2023-12-29T02:38:04;8.70;99.90
15596;DHT22;7898;48.658;9.068;2023-12-29T02:40:32;8.70;99.90
15596;DHT22;7898;48.658;9.068;2023-12-29T02:42:59;8.70;99.90
15596;DHT22;7898;48.658;9.068;2023-12-29T02:45:27;8.60;99.90
15596;DHT22;7898;48.658;9.068;2023-12-29T02:47:54;8.60;99.90
15596;DHT22;7898;48.658;9.068;2023-12-29T02:50:20;8.60;99.90
15596;DHT22;7898;48.658;9.068;2023-12-29T02:52:47;8.60;99.90
15596;DHT22;7898;48.658;9.068;2023-12-29T02:55:14;8.60;99.90
15596;DHT22;7898;48.658;9.068;2023-12-29T02:57:42;8.50;99.90
15596;DHT22;7898;48.658;9.068;2023-12-29T03:00:10;8.50;99.90
15596;DHT22;7898;48.658;9.068;2023-12-29T03:02:37;8.40;99.90
15596;DHT22;7898;48.658;9.068;2023-12-29T03:05:04;8.40;99.90
15596;DHT22;7898;48.658;9.068;2023-12-29T03:07:31;8.50;99.90
15596;DHT22;7898;48.658;9.068;2023-12-29T03:09:58;8.50;99.90
15596;DHT22;7898;48.658;9.068;2023-12-29T03:12:25;8.40;99.90
15596;DHT22;7898;48.658;9.068;2023-12-29T03:14:53;8.40;99.90
15596;DHT22;7898;48.658;9.068;2023-12-29T03:17:20;8.40;99.90
15596;DHT22;7898;48.658;9.068;2023-12-29T03:19:47;8.40;99.90
15596;DHT22;7898;48.658;9.068;2023-12-29T03:22:14;8.40;99.90
15596;DHT22;7898;48.658;9.068;2023-12-29T03:24:41;8.40;99.90
15596;DHT22;7898;48.658;9.068;2023-12-29T03:27:08;8.40;99.90
15596;DHT22;7898;48.658;9.068;2023-12-29T03:29:35;8.40;99.90
15596;DHT22;7898;48.658;9.068;2023-12-29T03:32:04;8.50;99.90
15596;DHT22;7898;48.658;9.068;2023-12-29T03:34:32;8.40;99.90
15596;DHT22;7898;48.658;9.068;2023-12-29T03:36:59;8.40;99.90
15596;DHT22;7898;48.658;9.068;2023-12-29T03:39:26;8.40;99.90
15596;DHT22;7898;48.658;9.068;2023-12-29T03:41:53;8.40;99.90
15596;DHT22;7898;48.658;9.068;2023-12-29T03:44:20;8.50;99.90
15596;DHT22;7898;48.658;9.068;2023-12-29T03:46:46;8.40;99.90
15596;DHT22;7898;48.658;9.068;2023-12-29T03:49:16;8.40;99.90
15596;DHT22;7898;48.658;9.068;2023-12-29T03:51:43;8.40;99.90
15596;DHT22;7898;48.658;9.068;2023-12-29T03:54:10;8.30;99.90
15596;DHT22;7898;48.658;9.068;2023-12-29T03:56:37;8.20;99.90
15596;DHT22;7898;48.658;9.068;2023-12-29T03:59:04;8.20;99.90
15596;DHT22;7898;48.658;9.068;2023-12-29T04:01:33;8.10;99.90
15596;DHT22;7898;48.658;9.068;2023-12-29T04:04:00;8.10;99.90
15596;DHT22;7898;48.658;9.068;2023-12-29T04:06:28;8.10;99.90
15596;DHT22;7898;48.658;9.068;2023-12-29T04:08:55;8.00;99.90
15596;DHT22;7898;48.658;9.068;2023-12-29T04:11:22;8.00;99.90
15596;DHT22;7898;48.658;9.068;2023-12-29T04:13:49;8.00;99.90
15596;DHT22;7898;48.658;9.068;2023-12-29T04:16:16;8.00;99.90
15596;DHT22;7898;48.658;9.068;2023-12-29T04:18:43;8.10;99.90
15596;DHT22;7898;48.658;9.068;2023-12-29T04:21:13;8.00;99.90
15596;DHT22;7898;48.658;9.068;2023-12-29T04:23:41;8.00;99.90
15596;DHT22;7898;48.658;9.068;2023-12-29T04:26:08;8.00;99.90
15596;DHT22;7898;48.658;9.068;2023-12-29T04:28:35;8.00;99.90
15596;DHT22;7898;48.658;9.068;2023-12-29T04:31:02;8.00;99.90
15596;DHT22;7898;48.658;9.068;2023-12-29T04:33:29;8.10;99.90
15596;DHT22;7898;48.658;9.068;2023-12-29T04:35:56;8.10;99.90
15596;DHT22;7898;48.658;9.068;2023-12-29T04:38:23;8.10;99.90
15596;DHT22;7898;48.658;9.068;2023-12-29T04:40:51;8.10;99.90
15596;DHT22;7898;48.658;9.068;2023-12-29T04:43:18;8.20;99.90
15596;DHT22;7898;48.658;9.068;2023-12-29T04:45:45;8.20;99.90
15596;DHT22;7898;48.658;9.068;2023-12-29T04:48:12;8.20;99.90
15596;DHT22;7898;48.658;9.068;2023-12-29T04:50:39;8.10;99.90
15596;DHT22;7898;48.658;9.068;2023-12-29T04:53:05;8.10;99.90
15596;DHT22;7898;48.658;9.068;2023-12-29T04:55:32;8.10;99.90
15596;DHT22;7898;48.658;9.068;2023-12-29T04:58:00;8.10;99.90
15596;DHT22;7898;48.658;9.068;2023-12-29T05:00:27;8.20;99.90
15596;DHT22;7898;48.658;9.068;2023-12-29T05:02:54;8.10;99.90
15596;DHT22;7898;48.658;9.068;2023-12-29T05:05:21;8.10;99.90
15596;DHT22;7898;48.658;9.068;2023-12-29T05:07:48;8.10;99.90
15596;DHT22;7898;48.658;9.068;2023-12-29T05:10:15;8.10;99.90
15596;DHT22;7898;48.658;9.068;2023-12-29T05:12:41;8.00;99.90
15596;DHT22;7898;48.658;9.068;2023-12-29T05:15:10;8.00;99.90
15596;DHT22;7898;48.658;9.068;2023-12-29T05:17:37;8.00;99.90
15596;DHT22;7898;48.658;9.068;2023-12-29T05:20:06;8.00;99.90
15596;DHT22;7898;48.658;9.068;2023-12-29T05:22:33;8.00;99.90
15596;DHT22;7898;48.658;9.068;2023-12-29T05:25:00;8.00;99.90
15596;DHT22;7898;48.658;9.068;2023-12-29T05:27:27;8.00;99.90
15596;DHT22;7898;48.658;9.068;2023-12-29T05:29:54;8.00;99.90
15596;DHT22;7898;48.658;9.068;2023-12-29T05:32:22;7.90;99.90
15596;DHT22;7898;48.658;9.068;2023-12-29T05:34:49;8.10;99.90
15596;DHT22;7898;48.658;9.068;2023-12-29T05:37:16;8.00;99.90
15596;DHT22;7898;48.658;9.068;2023-12-29T05:39:42;8.10;99.90
15596;DHT22;7898;48.658;9.068;2023-12-29T05:42:09;8.10;99.90
15596;DHT22;7898;48.658;9.068;2023-12-29T05:44:37;8.20;99.90
15596;DHT22;7898;48.658;9.068;2023-12-29T05:47:04;8.20;99.90
15596;DHT22;7898;48.658;9.068;2023-12-29T05:49:33;8.20;99.90
15596;DHT22;7898;48.658;9.068;2023-12-29T05:52:04;8.30;99.90
15596;DHT22;7898;48.658;9.068;2023-12-29T05:54:31;8.30;99.90
15596;DHT22;7898;48.658;9.068;2023-12-29T05:56:58;8.30;99.90
15596;DHT22;7898;48.658;9.068;2023-12-29T05:59:25;8.30;99.90
15596;DHT22;7898;48.658;9.068;2023-12-29T06:01:52;8.30;99.90
15596;DHT22;7898;48.658;9.068;2023-12-29T06:04:19;8.30;99.90
15596;DHT22;7898;48.658;9.068;2023-12-29T06:06:47;8.30;99.90
15596;DHT22;7898;48.658;9.068;2023-12-29T06:09:14;8.30;99.90
15596;DHT22;7898;48.658;9.068;2023-12-29T06:11:41;8.40;99.90
15596;DHT22;7898;48.658;9.068;2023-12-29T06:14:07;8.30;99.90
15596;DHT22;7898;48.658;9.068;2023-12-29T06:16:34;8.30;99.90
15596;DHT22;7898;48.658;9.068;2023-12-29T06:19:01;8.30;99.90
15596;DHT22;7898;48.658;9.068;2023-12-29T06:21:28;8.30;99.90
15596;DHT22;7898;48.658;9.068;2023-12-29T06:23:56;8.20;99.90
15596;DHT22;7898;48.658;9.068;2023-12-29T06:26:23;8.20;99.90
15596;DHT22;7898;48.658;9.068;2023-12-29T06:28:50;8.20;99.90
15596;DHT22;7898;48.658;9.068;2023-12-29T06:31:17;8.20;99.90
15596;DHT22;7898;48.658;9.068;2023-12-29T06:33:44;8.20;99.90
15596;DHT22;7898;48.658;9.068;2023-12-29T06:36:12;8.30;99.90
15596;DHT22;7898;48.658;9.068;2023-12-29T06:38:39;8.30;99.90
15596;DHT22;7898;48.658;9.068;2023-12-29T06:41:07;8.30;99.90
15596;DHT22;7898;48.658;9.068;2023-12-29T06:43:35;8.30;99.90
15596;DHT22;7898;48.658;9.068;2023-12-29T06:46:02;8.30;99.90
15596;DHT22;7898;48.658;9.068;2023-12-29T06:48:30;8.30;99.90
15596;DHT22;7898;48.658;9.068;2023-12-29T06:50:57;8.40;99.90
15596;DHT22;7898;48.658;9.068;2023-12-29T06:53:24;8.40;99.90
15596;DHT22;7898;48.658;9.068;2023-12-29T06:55:51;8.40;99.90
15596;DHT22;7898;48.658;9.068;2023-12-29T06:58:19;8.40;99.90
15596;DHT22;7898;48.658;9.068;2023-12-29T07:00:46;8.40;99.90
15596;DHT22;7898;48.658;9.068;2023-12-29T07:03:13;8.40;99.90
15596;DHT22;7898;48.658;9.068;2023-12-29T07:05:41;8.40;99.90
15596;DHT22;7898;48.658;9.068;2023-12-29T07:08:07;8.40;99.90
15596;DHT22;7898;48.658;9.068;2023-12-29T07:10:35;8.30;99.90
15596;DHT22;7898;48.658;9.068;2023-12-29T07:13:02;8.30;99.90
15596;DHT22;7898;48.658;9.068;2023-12-29T07:15:30;8.30;99.90
15596;DHT22;7898;48.658;9.068;2023-12-29T07:17:57;8.30;99.90
15596;DHT22;7898;48.658;9.068;2023-12-29T07:20:24;8.30;99.90
15596;DHT22;7898;48.658;9.068;2023-12-29T07:22:51;8.30;99.90
15596;DHT22;7898;48.658;9.068;2023-12-29T07:25:18;8.40;99.90
15596;DHT22;7898;48.658;9.068;2023-12-29T07:27:45;8.40;99.90
15596;DHT22;7898;48.658;9.068;2023-12-29T07:30:13;8.40;99.90
15596;DHT22;7898;48.658;9.068;2023-12-29T07:32:41;8.50;99.90
15596;DHT22;7898;48.658;9.068;2023-12-29T07:35:08;8.50;99.90
15596;DHT22;7898;48.658;9.068;2023-12-29T07:37:35;8.50;99.90
15596;DHT22;7898;48.658;9.068;2023-12-29T07:40:03;8.50;99.90
15596;DHT22;7898;48.658;9.068;2023-12-29T07:42:30;8.50;99.90
15596;DHT22;7898;48.658;9.068;2023-12-29T07:44:58;8.40;99.90
15596;DHT22;7898;48.658;9.068;2023-12-29T07:47:25;8.40;99.90
15596;DHT22;7898;48.658;9.068;2023-12-29T07:49:54;8.40;99.90
15596;DHT22;7898;48.658;9.068;2023-12-29T07:52:20;8.50;99.90
15596;DHT22;7898;48.658;9.068;2023-12-29T07:54:48;8.50;99.90
15596;DHT22;7898;48.658;9.068;2023-12-29T07:57:15;8.50;99.90
15596;DHT22;7898;48.658;9.068;2023-12-29T07:59:42;8.50;99.90
15596;DHT22;7898;48.658;9.068;2023-12-29T08:02:09;8.60;99.90
15596;DHT22;7898;48.658;9.068;2023-12-29T08:04:36;8.60;99.90
15596;DHT22;7898;48.658;9.068;2023-12-29T08:07:05;8.60;99.90
15596;DHT22;7898;48.658;9.068;2023-12-29T08:09:32;8.50;99.90
15596;DHT22;7898;48.658;9.068;2023-12-29T08:11:59;8.50;99.90
15596;DHT22;7898;48.658;9.068;2023-12-29T08:14:26;8.50;99.90
15596;DHT22;7898;48.658;9.068;2023-12-29T08:16:53;8.50;99.90
15596;DHT22;7898;48.658;9.068;2023-12-29T08:19:22;8.50;99.90
15596;DHT22;7898;48.658;9.068;2023-12-29T08:21:50;8.70;99.90
15596;DHT22;7898;48.658;9.068;2023-12-29T08:24:18;8.70;99.90
15596;DHT22;7898;48.658;9.068;2023-12-29T08:26:46;8.70;99.90
15596;DHT22;7898;48.658;9.068;2023-12-29T08:29:14;8.80;99.90
15596;DHT22;7898;48.658;9.068;2023-12-29T08:31:41;8.90;99.90
15596;DHT22;7898;48.658;9.068;2023-12-29T08:34:08;9.30;99.90
15596;DHT22;7898;48.658;9.068;2023-12-29T08:36:35;9.80;99.90
15596;DHT22;7898;48.658;9.068;2023-12-29T08:39:02;10.30;99.90
15596;DHT22;7898;48.658;9.068;2023-12-29T08:41:29;10.40;99.90
15596;DHT22;7898;48.658;9.068;2023-12-29T08:43:56;10.50;99.90
15596;DHT22;7898;48.658;9.068;2023-12-29T08:46:23;10.40;99.90
15596;DHT22;7898;48.658;9.068;2023-12-29T08:48:50;10.40;99.90
15596;DHT22;7898;48.658;9.068;2023-12-29T08:51:17;10.30;99.90
15596;DHT22;7898;48.658;9.068;2023-12-29T08:53:44;10.20;99.90
15596;DHT22;7898;48.658;9.068;2023-12-29T08:56:11;10.10;99.90
15596;DHT22;7898;48.658;9.068;2023-12-29T08:58:40;10.00;99.90
15596;DHT22;7898;48.658;9.068;2023-12-29T09:01:08;9.90;99.90
15596;DHT22;7898;48.658;9.068;2023-12-29T09:03:35;9.70;99.90
15596;DHT22;7898;48.658;9.068;2023-12-29T09:06:02;9.60;99.90
15596;DHT22;7898;48.658;9.068;2023-12-29T09:08:29;9.60;99.90
15596;DHT22;7898;48.658;9.068;2023-12-29T09:10:56;9.50;99.90
15596;DHT22;7898;48.658;9.068;2023-12-29T09:13:23;9.50;99.90
15596;DHT22;7898;48.658;9.068;2023-12-29T09:15:53;9.60;99.90
15596;DHT22;7898;48.658;9.068;2023-12-29T09:18:20;9.90;99.90
15596;DHT22;7898;48.658;9.068;2023-12-29T09:20:47;10.10;99.90
15596;DHT22;7898;48.658;9.068;2023-12-29T09:23:14;10.00;99.90
15596;DHT22;7898;48.658;9.068;2023-12-29T09:25:41;10.00;99.90
15596;DHT22;7898;48.658;9.068;2023-12-29T09:28:08;10.10;99.90
15596;DHT22;7898;48.658;9.068;2023-12-29T09:30:35;10.10;99.90
15596;DHT22;7898;48.658;9.068;2023-12-29T09:33:04;10.00;99.90
15596;DHT22;7898;48.658;9.068;2023-12-29T09:35:31;10.00;99.90
15596;DHT22;7898;48.658;9.068;2023-12-29T09:37:59;10.10;99.90
15596;DHT22;7898;48.658;9.068;2023-12-29T09:40:26;10.30;99.90
15596;DHT22;7898;48.658;9.068;2023-12-29T09:42:53;10.50;99.90
15596;DHT22;7898;48.658;9.068;2023-12-29T09:45:23;10.60;99.90
15596;DHT22;7898;48.658;9.068;2023-12-29T09:47:51;10.60;99.90
15596;DHT22;7898;48.658;9.068;2023-12-29T09:50:19;10.50;99.90
15596;DHT22;7898;48.658;9.068;2023-12-29T09:52:48;10.30;99.90
15596;DHT22;7898;48.658;9.068;2023-12-29T09:55:15;10.10;99.90
15596;DHT22;7898;48.658;9.068;2023-12-29T09:57:43;10.00;99.90
15596;DHT22;7898;48.658;9.068;2023-12-29T10:00:11;9.90;99.90
15596;DHT22;7898;48.658;9.068;2023-12-29T10:02:38;9.80;99.90
15596;DHT22;7898;48.658;9.068;2023-12-29T10:05:06;9.80;99.90
15596;DHT22;7898;48.658;9.068;2023-12-29T10:07:36;9.90;99.90
15596;DHT22;7898;48.658;9.068;2023-12-29T10:10:04;10.10;99.90
15596;DHT22;7898;48.658;9.068;2023-12-29T10:12:33;10.60;99.90
15596;DHT22;7898;48.658;9.068;2023-12-29T10:15:06;11.10;99.90
15596;DHT22;7898;48.658;9.068;2023-12-29T10:17:43;11.80;99.90
15596;DHT22;7898;48.658;9.068;2023-12-29T10:20:20;12.50;99.90
15596;DHT22;7898;48.658;9.068;2023-12-29T10:23:04;13.10;99.90
15596;DHT22;7898;48.658;9.068;2023-12-29T10:25:32;13.60;99.90
15596;DHT22;7898;48.658;9.068;2023-12-29T10:27:59;13.40;99.90
15596;DHT22;7898;48.658;9.068;2023-12-29T10:30:26;13.10;99.90
15596;DHT22;7898;48.658;9.068;2023-12-29T10:32:53;13.10;99.90
15596;DHT22;7898;48.658;9.068;2023-12-29T10:35:20;13.20;99.90
15596;DHT22;7898;48.658;9.068;2023-12-29T10:37:47;13.30;99.90
15596;DHT22;7898;48.658;9.068;2023-12-29T10:40:19;13.50;99.90
15596;DHT22;7898;48.658;9.068;2023-12-29T10:42:52;13.50;99.90
15596;DHT22;7898;48.658;9.068;2023-12-29T10:45:20;13.50;99.90
15596;DHT22;7898;48.658;9.068;2023-12-29T10:47:47;13.50;99.90
15596;DHT22;7898;48.658;9.068;2023-12-29T10:50:14;13.40;99.90
15596;DHT22;7898;48.658;9.068;2023-12-29T10:52:41;13.40;99.90
15596;DHT22;7898;48.658;9.068;2023-12-29T10:55:09;13.30;99.90
15596;DHT22;7898;48.658;9.068;2023-12-29T10:57:39;13.10;99.90
15596;DHT22;7898;48.658;9.068;2023-12-29T11:00:07;13.00;99.90
15596;DHT22;7898;48.658;9.068;2023-12-29T11:02:34;13.00;99.90
15596;DHT22;7898;48.658;9.068;2023-12-29T11:05:02;13.20;99.90
15596;DHT22;7898;48.658;9.068;2023-12-29T11:07:37;13.40;99.90
15596;DHT22;7898;48.658;9.068;2023-12-29T11:10:07;13.40;99.90
15596;DHT22;7898;48.658;9.068;2023-12-29T11:12:35;13.40;99.90
15596;DHT22;7898;48.658;9.068;2023-12-29T11:15:05;13.30;99.90
15596;DHT22;7898;48.658;9.068;2023-12-29T11:17:34;13.30;99.90
15596;DHT22;7898;48.658;9.068;2023-12-29T11:20:02;13.30;99.90
15596;DHT22;7898;48.658;9.068;2023-12-29T11:22:30;13.20;99.90
15596;DHT22;7898;48.658;9.068;2023-12-29T11:24:58;13.10;99.90
15596;DHT22;7898;48.658;9.068;2023-12-29T11:27:29;13.10;99.90
15596;DHT22;7898;48.658;9.068;2023-12-29T11:29:59;13.10;99.90
15596;DHT22;7898;48.658;9.068;2023-12-29T11:32:34;13.00;99.90
15596;DHT22;7898;48.658;9.068;2023-12-29T11:35:11;13.00;99.90
15596;DHT22;7898;48.658;9.068;2023-12-29T11:37:53;13.20;99.90
15596;DHT22;7898;48.658;9.068;2023-12-29T11:40:29;13.10;99.90
15596;DHT22;7898;48.658;9.068;2023-12-29T11:43:01;13.10;99.90
15596;DHT22;7898;48.658;9.068;2023-12-29T11:45:31;13.00;99.90
15596;DHT22;7898;48.658;9.068;2023-12-29T11:48:01;13.10;99.90
15596;DHT22;7898;48.658;9.068;2023-12-29T11:50:30;13.20;99.90
15596;DHT22;7898;48.658;9.068;2023-12-29T11:52:58;13.20;99.90
15596;DHT22;7898;48.658;9.068;2023-12-29T11:55:29;13.00;99.90
15596;DHT22;7898;48.658;9.068;2023-12-29T11:57:57;12.90;99.90
15596;DHT22;7898;48.658;9.068;2023-12-29T12:00:43;12.90;99.90
15596;DHT22;7898;48.658;9.068;2023-12-29T12:03:16;12.70;99.90
15596;DHT22;7898;48.658;9.068;2023-12-29T12:05:47;12.60;99.90
15596;DHT22;7898;48.658;9.068;2023-12-29T12:08:31;12.60;99.90
15596;DHT22;7898;48.658;9.068;2023-12-29T12:14:09;12.90;99.90
15596;DHT22;7898;48.658;9.068;2023-12-29T12:16:48;12.90;99.90
15596;DHT22;7898;48.658;9.068;2023-12-29T12:19:17;12.90;99.90
15596;DHT22;7898;48.658;9.068;2023-12-29T12:21:46;13.00;99.90
15596;DHT22;7898;48.658;9.068;2023-12-29T12:24:15;12.90;99.90
15596;DHT22;7898;48.658;9.068;2023-12-29T12:26:44;12.80;99.90
15596;DHT22;7898;48.658;9.068;2023-12-29T12:29:13;12.80;99.90
15596;DHT22;7898;48.658;9.068;2023-12-29T12:31:52;12.70;99.90
15596;DHT22;7898;48.658;9.068;2023-12-29T12:34:20;12.60;99.90
15596;DHT22;7898;48.658;9.068;2023-12-29T12:36:51;12.50;99.90
15596;DHT22;7898;48.658;9.068;2023-12-29T12:39:18;12.40;99.90
15596;DHT22;7898;48.658;9.068;2023-12-29T12:41:45;12.40;99.90
15596;DHT22;7898;48.658;9.068;2023-12-29T12:44:13;12.40;99.90
15596;DHT22;7898;48.658;9.068;2023-12-29T12:46:48;12.40;99.90
15596;DHT22;7898;48.658;9.068;2023-12-29T12:49:16;12.50;99.90
15596;DHT22;7898;48.658;9.068;2023-12-29T12:51:45;12.50;99.90
15596;DHT22;7898;48.658;9.068;2023-12-29T12:54:14;12.50;99.90
15596;DHT22;7898;48.658;9.068;2023-12-29T12:56:43;12.50;99.90
15596;DHT22;7898;48.658;9.068;2023-12-29T12:59:11;12.50;99.90
15596;DHT22;7898;48.658;9.068;2023-12-29T13:01:38;12.30;99.90
15596;DHT22;7898;48.658;9.068;2023-12-29T13:04:07;12.40;99.90
15596;DHT22;7898;48.658;9.068;2023-12-29T13:06:35;12.50;99.90
15596;DHT22;7898;48.658;9.068;2023-12-29T13:09:07;12.60;99.90
15596;DHT22;7898;48.658;9.068;2023-12-29T13:11:37;12.70;99.90
15596;DHT22;7898;48.658;9.068;2023-12-29T13:14:04;12.80;99.90
15596;DHT22;7898;48.658;9.068;2023-12-29T13:16:33;12.80;99.90
15596;DHT22;7898;48.658;9.068;2023-12-29T13:19:15;12.90;99.90
15596;DHT22;7898;48.658;9.068;2023-12-29T13:21:42;12.90;99.90
15596;DHT22;7898;48.658;9.068;2023-12-29T13:24:10;12.90;99.90
15596;DHT22;7898;48.658;9.068;2023-12-29T13:26:37;12.80;99.90
15596;DHT22;7898;48.658;9.068;2023-12-29T13:29:05;12.60;99.90
15596;DHT22;7898;48.658;9.068;2023-12-29T13:31:32;12.80;99.90
15596;DHT22;7898;48.658;9.068;2023-12-29T13:34:03;12.30;99.90
15596;DHT22;7898;48.658;9.068;2023-12-29T13:36:35;12.20;99.90
15596;DHT22;7898;48.658;9.068;2023-12-29T13:39:15;12.20;99.90
15596;DHT22;7898;48.658;9.068;2023-12-29T13:41:46;12.10;99.90
15596;DHT22;7898;48.658;9.068;2023-12-29T13:44:14;12.10;99.90
15596;DHT22;7898;48.658;9.068;2023-12-29T13:46:42;12.10;99.90
15596;DHT22;7898;48.658;9.068;2023-12-29T13:49:09;12.20;99.90
15596;DHT22;7898;48.658;9.068;2023-12-29T13:51:36;12.20;99.90
15596;DHT22;7898;48.658;9.068;2023-12-29T13:54:03;12.20;99.90
15596;DHT22;7898;48.658;9.068;2023-12-29T13:56:31;12.20;99.90
15596;DHT22;7898;48.658;9.068;2023-12-29T13:58:58;12.20;99.90
15596;DHT22;7898;48.658;9.068;2023-12-29T14:01:35;12.20;99.90
15596;DHT22;7898;48.658;9.068;2023-12-29T14:04:06;12.20;99.90
15596;DHT22;7898;48.658;9.068;2023-12-29T14:06:38;12.10;99.90
15596;DHT22;7898;48.658;9.068;2023-12-29T14:09:05;11.90;99.90
15596;DHT22;7898;48.658;9.068;2023-12-29T14:11:34;11.80;99.90
15596;DHT22;7898;48.658;9.068;2023-12-29T14:14:02;11.70;99.90
15596;DHT22;7898;48.658;9.068;2023-12-29T14:16:29;11.70;99.90
15596;DHT22;7898;48.658;9.068;2023-12-29T14:18:56;11.70;99.90
15596;DHT22;7898;48.658;9.068;2023-12-29T14:21:27;11.60;99.90
15596;DHT22;7898;48.658;9.068;2023-12-29T14:24:08;11.60;99.90
15596;DHT22;7898;48.658;9.068;2023-12-29T14:26:37;11.50;99.90
15596;DHT22;7898;48.658;9.068;2023-12-29T14:29:07;11.50;99.90
15596;DHT22;7898;48.658;9.068;2023-12-29T14:31:36;11.50;99.90
15596;DHT22;7898;48.658;9.068;2023-12-29T14:34:03;11.60;99.90
15596;DHT22;7898;48.658;9.068;2023-12-29T14:36:31;11.50;99.90
15596;DHT22;7898;48.658;9.068;2023-12-29T14:38:58;11.50;99.90
15596;DHT22;7898;48.658;9.068;2023-12-29T14:41:25;11.40;99.90
15596;DHT22;7898;48.658;9.068;2023-12-29T14:43:53;11.30;99.90
15596;DHT22;7898;48.658;9.068;2023-12-29T14:46:20;11.20;99.90
15596;DHT22;7898;48.658;9.068;2023-12-29T14:48:47;11.10;99.90
15596;DHT22;7898;48.658;9.068;2023-12-29T14:51:14;11.10;99.90
15596;DHT22;7898;48.658;9.068;2023-12-29T14:53:45;11.20;99.90
15596;DHT22;7898;48.658;9.068;2023-12-29T14:56:13;11.00;99.90
15596;DHT22;7898;48.658;9.068;2023-12-29T14:58:40;10.90;99.90
15596;DHT22;7898;48.658;9.068;2023-12-29T15:01:09;10.80;99.90
15596;DHT22;7898;48.658;9.068;2023-12-29T15:03:36;10.80;99.90
15596;DHT22;7898;48.658;9.068;2023-12-29T15:06:04;10.80;99.90
15596;DHT22;7898;48.658;9.068;2023-12-29T15:08:31;10.70;99.90
15596;DHT22;7898;48.658;9.068;2023-12-29T15:11:00;10.70;99.90
15596;DHT22;7898;48.658;9.068;2023-12-29T15:13:28;10.60;99.90
15596;DHT22;7898;48.658;9.068;2023-12-29T15:15:56;10.60;99.90
15596;DHT22;7898;48.658;9.068;2023-12-29T15:18:26;10.60;99.90
15596;DHT22;7898;48.658;9.068;2023-12-29T15:20:53;10.50;99.90
15596;DHT22;7898;48.658;9.068;2023-12-29T15:23:20;10.40;99.90
15596;DHT22;7898;48.658;9.068;2023-12-29T15:25:48;10.40;99.90
15596;DHT22;7898;48.658;9.068;2023-12-29T15:28:15;10.20;99.90
15596;DHT22;7898;48.658;9.068;2023-12-29T15:30:43;10.20;99.90
15596;DHT22;7898;48.658;9.068;2023-12-29T15:33:10;10.10;99.90
15596;DHT22;7898;48.658;9.068;2023-12-29T15:35:38;10.10;99.90
15596;DHT22;7898;48.658;9.068;2023-12-29T15:38:06;10.00;99.90
15596;DHT22;7898;48.658;9.068;2023-12-29T15:40:33;9.90;99.90
15596;DHT22;7898;48.658;9.068;2023-12-29T15:43:00;9.90;99.90
15596;DHT22;7898;48.658;9.068;2023-12-29T15:45:29;9.80;99.90
15596;DHT22;7898;48.658;9.068;2023-12-29T15:47:56;9.80;99.90
15596;DHT22;7898;48.658;9.068;2023-12-29T15:50:23;9.70;99.90
15596;DHT22;7898;48.658;9.068;2023-12-29T15:52:51;9.60;99.90
15596;DHT22;7898;48.658;9.068;2023-12-29T15:55:18;9.60;99.90
15596;DHT22;7898;48.658;9.068;2023-12-29T15:57:45;9.60;99.90
15596;DHT22;7898;48.658;9.068;2023-12-29T16:00:13;9.50;99.90
15596;DHT22;7898;48.658;9.068;2023-12-29T16:02:40;9.50;99.90